Terminal Aerodrome Forecast
Issued by NWS

Home | Current Version | Previous Version | Text Only | Print | Product List | Glossary On
Versions: 1 2 3 4 5 6 7 8 9 10 11 12 13 14 15 16 17
365
FTUS42 KTBW 291738
TAFPGD
TAF
KPGD 291738Z 2918/3018 13014G22KT P6SM SCT050 BKN250
     FM300100 10010KT P6SM FEW050 BKN250
     FM300900 11009KT P6SM FEW025 BKN150
     FM301400 14014G22KT P6SM BKN035 BKN250=

USA.gov is the U.S. government's official web portal to all federal, state and local government web resources and services.